Time;durP1;ratioP1;P1;durP2;ratioP2;P2;SDS_P1;SDS_P2;PMS_P1;PMS_P2;Temp;Humidity;BMP_temperature;BMP_pressure;BME280_temperature;BME280_humidity;BME280_pressure;Samples;Min_cycle;Max_cycle;Signal;HPM_P1;HPM_P2
2021/03/02 00:01:06;;;;;;;33.85;16.70;;;-2.10;99.90;;;;;;5050264;28;20032;-53
2021/03/02 00:03:33;;;;;;;38.72;16.23;;;-2.00;99.90;;;;;;5047674;28;20128;-56
2021/03/02 00:06:03;;;;;;;42.15;18.30;;;-2.10;99.90;;;;;;5050374;28;20116;-56
2021/03/02 00:08:29;;;;;;;33.83;16.17;;;-2.00;99.90;;;;;;5050240;28;20055;-56
2021/03/02 00:11:05;;;;;;;42.78;17.60;;;-2.00;99.90;;;;;;5050083;28;20157;-53
2021/03/02 00:13:31;;;;;;;41.80;18.65;;;-2.10;99.90;;;;;;5049999;28;20035;-53
2021/03/02 00:16:00;;;;;;;41.05;17.60;;;-2.10;99.90;;;;;;5049501;28;20769;-54
2021/03/02 00:18:28;;;;;;;31.63;13.65;;;-2.10;99.90;;;;;;5049045;28;20491;-57
2021/03/02 00:21:02;;;;;;;44.90;18.30;;;-2.10;99.90;;;;;;5048854;28;20048;-57
2021/03/02 00:23:37;;;;;;;39.97;17.08;;;-2.20;99.90;;;;;;5049810;28;20025;-57
2021/03/02 00:26:03;;;;;;;28.77;12.13;;;-2.20;99.90;;;;;;5051236;28;20033;-57
2021/03/02 00:28:29;;;;;;;46.33;19.02;;;-2.20;99.90;;;;;;5051636;28;20290;-56
2021/03/02 00:30:57;;;;;;;56.78;21.20;;;-2.10;99.90;;;;;;5051669;28;20125;-54
2021/03/02 00:33:23;;;;;;;43.60;17.42;;;-2.20;99.90;;;;;;5050650;28;20033;-55
2021/03/02 00:35:49;;;;;;;57.90;21.60;;;-2.20;99.90;;;;;;5051687;28;20158;-56
2021/03/02 00:38:15;;;;;;;39.53;17.90;;;-2.20;99.90;;;;;;5051604;28;20068;-57
2021/03/02 00:40:40;;;;;;;51.25;19.58;;;-2.20;99.90;;;;;;5051764;28;20051;-57
2021/03/02 00:43:06;;;;;;;49.40;18.02;;;-2.20;99.90;;;;;;5051578;28;20033;-57
2021/03/02 00:45:32;;;;;;;44.42;20.05;;;-2.30;99.90;;;;;;5051667;28;20025;-53
2021/03/02 00:47:58;;;;;;;49.88;19.58;;;-2.30;99.90;;;;;;5050405;28;20074;-57
2021/03/02 00:50:25;;;;;;;46.47;18.33;;;-2.30;99.90;;;;;;5051486;28;20025;-55
2021/03/02 00:52:50;;;;;;;57.67;21.23;;;-2.30;99.90;;;;;;5052460;28;20455;-53
2021/03/02 00:55:16;;;;;;;44.33;17.90;;;-2.30;99.90;;;;;;5055037;28;20045;-54
2021/03/02 00:57:42;;;;;;;57.65;22.30;;;-2.40;99.90;;;;;;5055429;28;20055;-58
2021/03/02 01:00:09;;;;;;;45.88;20.05;;;-2.40;99.90;;;;;;5055254;28;20036;-52
2021/03/02 01:02:35;;;;;;;52.38;21.55;;;-2.40;99.90;;;;;;5055415;28;20108;-52
2021/03/02 01:05:00;;;;;;;60.75;21.65;;;-2.40;99.90;;;;;;5054092;28;20074;-55
2021/03/02 01:07:26;;;;;;;39.65;17.55;;;-2.40;99.90;;;;;;5055197;28;20033;-56
2021/03/02 01:09:51;;;;;;;55.75;22.23;;;-2.50;99.90;;;;;;5053878;28;20119;-56
2021/03/02 01:12:17;;;;;;;37.47;15.55;;;-2.50;99.90;;;;;;5055446;28;20100;-55
2021/03/02 01:14:43;;;;;;;46.05;18.85;;;-2.50;99.90;;;;;;5053610;28;20036;-57
2021/03/02 01:17:08;;;;;;;40.95;17.70;;;-2.50;99.90;;;;;;5055004;28;20461;-56
2021/03/02 01:19:34;;;;;;;48.65;18.58;;;-2.50;99.90;;;;;;5052543;28;20589;-56
2021/03/02 01:21:59;;;;;;;47.33;18.92;;;-2.50;99.90;;;;;;5054805;28;20029;-54
2021/03/02 01:24:24;;;;;;;38.33;17.17;;;-2.50;99.90;;;;;;5054596;28;20036;-57
2021/03/02 01:26:51;;;;;;;49.53;21.48;;;-2.60;99.90;;;;;;5054604;28;20472;-52
2021/03/02 01:29:16;;;;;;;50.47;20.17;;;-2.50;99.90;;;;;;5054498;28;20033;-55
2021/03/02 01:31:42;;;;;;;50.95;18.45;;;-2.60;99.90;;;;;;5054559;28;20495;-56
2021/03/02 01:34:07;;;;;;;48.58;20.33;;;-2.60;99.90;;;;;;5053443;28;20029;-53
2021/03/02 01:36:33;;;;;;;55.05;20.48;;;-2.60;99.90;;;;;;5054545;28;20082;-52
2021/03/02 01:38:59;;;;;;;36.28;14.02;;;-2.70;99.90;;;;;;5054433;28;20029;-55
2021/03/02 01:41:24;;;;;;;38.08;15.55;;;-2.70;99.90;;;;;;5054534;28;20104;-56
2021/03/02 01:43:50;;;;;;;44.60;17.40;;;-2.70;99.90;;;;;;5054568;28;20025;-54
2021/03/02 01:46:15;;;;;;;43.15;17.15;;;-2.70;99.90;;;;;;5053528;28;20548;-57
2021/03/02 01:48:41;;;;;;;46.63;17.65;;;-2.70;99.90;;;;;;5053548;28;20040;-54
2021/03/02 01:51:08;;;;;;;49.42;19.35;;;-2.70;99.90;;;;;;5054083;28;20424;-56
2021/03/02 01:53:34;;;;;;;45.83;18.13;;;-2.80;99.90;;;;;;5054090;28;20136;-57
2021/03/02 01:56:00;;;;;;;48.40;18.42;;;-2.80;99.90;;;;;;5052585;28;20115;-56
2021/03/02 01:58:26;;;;;;;32.42;13.48;;;-2.80;99.90;;;;;;5052914;28;20025;-55
2021/03/02 02:01:00;;;;;;;43.10;18.90;;;-2.80;99.90;;;;;;5054102;28;20070;-55
2021/03/02 02:04:04;;;;;;;44.65;18.35;;;-2.80;99.90;;;;;;5053087;28;20025;-54
2021/03/02 02:06:36;;;;;;;48.35;17.63;;;-2.80;99.90;;;;;;5048828;28;20052;-54
2021/03/02 02:09:18;;;;;;;49.45;19.48;;;-2.70;99.90;;;;;;5053889;28;20021;-57
2021/03/02 02:11:50;;;;;;;48.88;18.17;;;-2.70;99.90;;;;;;5052759;28;20294;-57
2021/03/02 02:14:53;;;;;;;39.10;16.42;;;-2.80;99.90;;;;;;5053618;28;20039;-52
2021/03/02 02:17:30;;;;;;;43.20;16.08;;;-2.80;99.90;;;;;;5053885;28;20033;-57
2021/03/02 02:19:58;;;;;;;;;;;-2.80;99.90;;;;;;5053057;28;20021;-57
2021/03/02 02:22:48;;;;;;;31.60;12.27;;;-2.80;99.90;;;;;;5053654;28;20299;-55
2021/03/02 02:25:45;;;;;;;26.60;10.55;;;-2.80;99.90;;;;;;5053569;28;20142;-57
2021/03/02 02:28:13;;;;;;;38.42;12.90;;;-2.80;99.90;;;;;;5052121;28;20028;-56
2021/03/02 02:30:41;;;;;;;34.53;14.95;;;-2.80;99.90;;;;;;5053158;28;20104;-56
2021/03/02 02:33:09;;;;;;;31.23;12.63;;;-2.80;99.90;;;;;;5052440;28;20032;-55
2021/03/02 02:35:37;;;;;;;39.78;15.32;;;-2.80;99.90;;;;;;5053124;28;20087;-56
2021/03/02 02:38:05;;;;;;;35.10;14.95;;;-2.80;99.90;;;;;;5053418;28;20016;-56
2021/03/02 02:40:31;;;;;;;41.65;16.25;;;-2.70;99.90;;;;;;5053413;28;20025;-57
2021/03/02 02:42:57;;;;;;;36.75;14.70;;;-2.70;99.90;;;;;;5053322;28;20358;-56
2021/03/02 02:45:23;;;;;;;41.63;16.73;;;-2.60;99.90;;;;;;5051603;28;20025;-52
2021/03/02 02:47:50;;;;;;;34.05;14.15;;;-2.60;99.90;;;;;;5052813;28;20357;-52
2021/03/02 02:50:17;;;;;;;34.25;14.48;;;-2.60;99.90;;;;;;5050673;28;20074;-57
2021/03/02 02:52:44;;;;;;;33.80;13.45;;;-2.60;99.90;;;;;;5053279;28;20057;-56
2021/03/02 02:55:10;;;;;;;30.33;11.85;;;-2.60;99.90;;;;;;5052734;28;20045;-56
2021/03/02 02:57:41;;;;;;;45.38;15.82;;;-2.60;99.90;;;;;;5053172;28;20032;-57
2021/03/02 03:00:07;;;;;;;54.58;18.15;;;-2.60;99.90;;;;;;5051547;28;20472;-57
2021/03/02 03:02:34;;;;;;;47.75;15.82;;;-2.60;99.90;;;;;;5053061;28;20048;-57
2021/03/02 03:05:05;;;;;;;60.88;18.27;;;-2.50;99.90;;;;;;5050529;28;20484;-54
2021/03/02 03:07:46;;;;;;;56.97;17.67;;;-2.50;99.90;;;;;;5052775;28;20025;-54
2021/03/02 03:10:12;;;;;;;70.88;19.13;;;-2.50;99.90;;;;;;5051635;28;20373;-57
2021/03/02 03:12:42;;;;;;;160.65;23.48;;;-2.60;99.90;;;;;;5053155;28;20107;-56
2021/03/02 03:15:10;;;;;;;85.10;20.27;;;-2.50;99.90;;;;;;5052813;28;20029;-57
2021/03/02 03:17:42;;;;;;;80.75;18.98;;;-2.60;99.90;;;;;;5051877;28;20024;-54
2021/03/02 03:20:10;;;;;;;120.43;21.83;;;-2.60;99.90;;;;;;5051802;28;20024;-57
2021/03/02 03:22:37;;;;;;;97.45;21.30;;;-2.50;99.90;;;;;;5052800;28;20028;-56
2021/03/02 03:25:05;;;;;;;103.43;23.00;;;-2.50;99.90;;;;;;5051306;28;20559;-58
2021/03/02 03:27:33;;;;;;;94.78;21.88;;;-2.60;99.90;;;;;;5052969;28;20040;-57
2021/03/02 03:30:00;;;;;;;71.18;20.30;;;-2.60;99.90;;;;;;5052547;28;20379;-57
2021/03/02 03:32:27;;;;;;;58.60;16.52;;;-2.60;99.90;;;;;;5050824;28;20131;-55
2021/03/02 03:34:54;;;;;;;87.00;20.00;;;-2.60;99.90;;;;;;5051665;28;20112;-57
2021/03/02 03:37:20;;;;;;;67.30;18.30;;;-2.60;99.90;;;;;;5052393;28;20035;-57
2021/03/02 03:39:46;;;;;;;99.47;22.40;;;-2.50;99.90;;;;;;5052341;28;20075;-57
2021/03/02 03:42:12;;;;;;;76.45;20.00;;;-2.50;99.90;;;;;;5052534;28;20029;-57
2021/03/02 03:44:37;;;;;;;98.60;22.60;;;-2.50;99.90;;;;;;5052438;28;20028;-52
2021/03/02 03:47:04;;;;;;;68.65;18.98;;;-2.40;99.90;;;;;;5052403;28;20028;-56
2021/03/02 03:49:29;;;;;;;88.03;21.00;;;-2.40;99.90;;;;;;5051586;28;20383;-55
2021/03/02 03:51:57;;;;;;;69.65;18.27;;;-2.40;99.90;;;;;;5052069;28;20112;-56
2021/03/02 03:54:25;;;;;;;72.05;19.80;;;-2.40;99.90;;;;;;5052039;28;20389;-55
2021/03/02 03:56:52;;;;;;;58.33;17.55;;;-2.40;99.90;;;;;;5052191;28;20071;-55
2021/03/02 03:59:21;;;;;;;56.47;16.95;;;-2.40;99.90;;;;;;5052219;28;20106;-55
2021/03/02 04:01:47;;;;;;;63.63;19.73;;;-2.40;99.90;;;;;;5052266;28;20104;-57
2021/03/02 04:04:13;;;;;;;68.15;20.50;;;-2.40;99.90;;;;;;5051294;28;20051;-57
2021/03/02 04:06:39;;;;;;;66.82;18.30;;;-2.40;99.90;;;;;;5052006;28;20029;-57
2021/03/02 04:09:05;;;;;;;45.72;15.63;;;-2.40;99.90;;;;;;5051908;28;20028;-57
2021/03/02 04:11:35;;;;;;;50.53;16.85;;;-2.40;99.90;;;;;;5050173;28;20032;-53
2021/03/02 04:14:00;;;;;;;51.97;18.52;;;-2.40;99.90;;;;;;5052200;28;20028;-57
2021/03/02 04:16:26;;;;;;;57.20;18.83;;;-2.50;99.90;;;;;;5050601;28;20119;-56
2021/03/02 04:18:51;;;;;;;55.78;17.65;;;-2.50;99.90;;;;;;5051315;28;20091;-57
2021/03/02 04:21:18;;;;;;;51.78;17.30;;;-2.50;99.90;;;;;;5051782;28;20025;-56
2021/03/02 04:23:44;;;;;;;49.55;16.55;;;-2.50;99.90;;;;;;5051965;28;20427;-55
2021/03/02 04:26:09;;;;;;;60.45;18.95;;;-2.50;99.90;;;;;;5050753;28;20029;-57
2021/03/02 04:28:35;;;;;;;68.70;21.02;;;-2.50;99.90;;;;;;5054704;28;20040;-57
2021/03/02 04:31:01;;;;;;;65.82;19.17;;;-2.50;99.90;;;;;;5056033;28;20090;-55
2021/03/02 04:33:26;;;;;;;56.40;17.23;;;-2.50;99.90;;;;;;5053908;28;20060;-56
2021/03/02 04:35:52;;;;;;;78.85;21.23;;;-2.40;99.90;;;;;;5054453;28;20037;-57
2021/03/02 04:38:17;;;;;;;69.15;19.33;;;-2.40;99.90;;;;;;5055861;28;20055;-52
2021/03/02 04:40:43;;;;;;;57.85;16.40;;;-2.40;99.90;;;;;;5055832;28;20044;-56
2021/03/02 04:43:08;;;;;;;83.93;20.08;;;-2.40;99.90;;;;;;5055757;28;20058;-57
2021/03/02 04:45:34;;;;;;;77.60;17.42;;;-2.40;99.90;;;;;;5055793;28;20025;-57
2021/03/02 04:47:59;;;;;;;67.03;17.85;;;-2.40;99.90;;;;;;5055127;28;20029;-56
2021/03/02 04:50:25;;;;;;;54.88;15.40;;;-2.40;99.90;;;;;;5055300;28;20021;-57
2021/03/02 04:52:51;;;;;;;53.90;15.90;;;-2.40;99.90;;;;;;5055722;28;20044;-56
2021/03/02 04:55:16;;;;;;;57.53;18.08;;;-2.40;99.90;;;;;;5053723;28;20131;-52
2021/03/02 04:57:42;;;;;;;81.40;18.30;;;-2.30;99.90;;;;;;5055931;28;20033;-56
2021/03/02 05:00:10;;;;;;;44.15;14.38;;;-2.40;99.90;;;;;;5055684;28;20097;-53
2021/03/02 05:02:36;;;;;;;67.60;19.25;;;-2.30;99.90;;;;;;5055834;28;20040;-55
2021/03/02 05:05:03;;;;;;;53.65;16.98;;;-2.30;99.90;;;;;;5054632;28;20029;-53
2021/03/02 05:07:28;;;;;;;43.33;14.18;;;-2.30;99.90;;;;;;5055671;28;20032;-54
2021/03/02 05:09:54;;;;;;;58.78;16.90;;;-2.10;99.90;;;;;;5055597;28;20025;-57
2021/03/02 05:12:19;;;;;;;51.15;16.00;;;-2.00;99.90;;;;;;5055446;28;20056;-57
2021/03/02 05:14:45;;;;;;;55.13;13.65;;;-2.10;99.90;;;;;;5055490;28;20124;-57
2021/03/02 05:17:10;;;;;;;43.47;13.63;;;-2.10;99.90;;;;;;5055307;28;20021;-57
2021/03/02 05:19:36;;;;;;;45.38;13.38;;;-2.10;99.90;;;;;;5053201;28;20025;-52
2021/03/02 05:22:02;;;;;;;41.40;12.07;;;-2.10;99.90;;;;;;5055364;28;20021;-55
2021/03/02 05:24:27;;;;;;;51.30;14.30;;;-2.10;99.90;;;;;;5055298;28;20507;-58
2021/03/02 05:26:53;;;;;;;34.60;12.60;;;-2.10;99.90;;;;;;5055337;28;20025;-56
2021/03/02 05:29:19;;;;;;;36.50;12.50;;;-2.10;99.90;;;;;;5051288;28;20018;-57
2021/03/02 05:31:44;;;;;;;33.92;11.68;;;-2.10;99.90;;;;;;5054972;28;20025;-54
2021/03/02 05:34:10;;;;;;;48.03;13.80;;;-2.10;99.90;;;;;;5053914;28;20048;-58
2021/03/02 05:36:35;;;;;;;39.58;13.10;;;-2.10;99.90;;;;;;5055056;28;20083;-55
2021/03/02 05:39:01;;;;;;;38.38;13.63;;;-2.10;99.90;;;;;;5053857;28;20028;-56
2021/03/02 05:41:27;;;;;;;28.90;12.00;;;-2.00;99.90;;;;;;5053468;28;20040;-50
2021/03/02 05:43:53;;;;;;;34.22;12.27;;;-2.00;99.90;;;;;;5055133;28;20060;-56
2021/03/02 05:46:22;;;;;;;29.70;11.73;;;-2.00;99.90;;;;;;5054838;28;20028;-53
2021/03/02 05:48:48;;;;;;;29.55;11.20;;;-2.00;99.90;;;;;;5052613;28;20032;-57
2021/03/02 05:51:16;;;;;;;43.03;12.95;;;-2.00;99.90;;;;;;5054685;28;20033;-55
2021/03/02 05:53:41;;;;;;;27.67;11.10;;;-1.90;99.90;;;;;;5054765;28;20431;-54
2021/03/02 05:56:07;;;;;;;26.23;9.77;;;-1.90;99.90;;;;;;5055809;28;20033;-53
2021/03/02 05:58:34;;;;;;;26.83;12.25;;;-1.90;99.90;;;;;;5054683;28;20068;-54
2021/03/02 06:01:00;;;;;;;34.55;12.52;;;-1.80;99.90;;;;;;5054691;28;20136;-51
2021/03/02 06:03:26;;;;;;;49.95;13.00;;;-1.80;99.90;;;;;;5053447;28;20037;-54
2021/03/02 06:05:53;;;;;;;25.83;12.50;;;-1.70;99.90;;;;;;5054584;28;20035;-54
2021/03/02 06:08:19;;;;;;;43.25;13.95;;;-1.70;99.90;;;;;;5054447;28;20029;-54
2021/03/02 06:10:45;;;;;;;38.42;13.93;;;-1.60;99.90;;;;;;5054379;28;20025;-51
2021/03/02 06:13:10;;;;;;;42.25;12.45;;;-1.50;99.90;;;;;;5054520;28;20071;-56
2021/03/02 06:15:55;;;;;;;40.67;13.05;;;-1.50;99.90;;;;;;5052847;28;20051;-53
2021/03/02 06:18:23;;;;;;;53.92;15.70;;;-1.40;99.90;;;;;;5053181;28;20017;-55
2021/03/02 06:20:49;;;;;;;71.10;15.52;;;-1.30;99.90;;;;;;5054268;28;20021;-53
2021/03/02 06:23:18;;;;;;;46.22;14.43;;;-1.30;99.90;;;;;;5054233;28;20373;-53
2021/03/02 06:25:44;;;;;;;67.20;15.38;;;-1.20;99.90;;;;;;5054120;28;20025;-55
2021/03/02 06:28:11;;;;;;;52.17;15.02;;;-1.20;99.90;;;;;;5054230;28;20434;-52
2021/03/02 06:30:37;;;;;;;55.17;14.77;;;-1.10;99.90;;;;;;5053695;28;20118;-51
2021/03/02 06:33:03;;;;;;;46.97;13.82;;;-1.00;99.90;;;;;;5053389;28;20503;-52
2021/03/02 06:35:38;;;;;;;56.97;15.38;;;-0.90;99.90;;;;;;5053976;28;20064;-55
2021/03/02 06:38:05;;;;;;;48.17;14.02;;;-0.90;99.90;;;;;;5048558;28;20876;-56
2021/03/02 06:40:40;;;;;;;42.20;13.35;;;-0.80;99.90;;;;;;5053636;28;20029;-54
2021/03/02 06:43:06;;;;;;;32.35;12.98;;;-0.70;99.90;;;;;;5051522;28;20052;-51
2021/03/02 06:45:32;;;;;;;51.72;14.90;;;-0.60;99.90;;;;;;5051071;28;20035;-54
2021/03/02 06:48:05;;;;;;;65.45;16.60;;;-0.50;99.90;;;;;;5051945;28;20112;-53
2021/03/02 06:50:37;;;;;;;48.20;13.48;;;-0.30;99.90;;;;;;5035214;28;20029;-53
2021/03/02 06:53:12;;;;;;;38.72;13.80;;;-0.20;99.90;;;;;;5052905;28;20521;-56
2021/03/02 06:55:39;;;;;;;36.22;13.70;;;-0.10;99.90;;;;;;5052711;28;20419;-53
2021/03/02 06:58:25;;;;;;;33.88;13.23;;;0.10;99.90;;;;;;5053182;28;20025;-69
2021/03/02 07:00:55;;;;;;;46.75;14.27;;;0.40;99.90;;;;;;5053693;28;20018;-69
2021/03/02 07:03:31;;;;;;;41.65;14.93;;;0.70;99.90;;;;;;5052385;28;20025;-67
2021/03/02 07:06:03;;;;;;;25.50;12.02;;;1.10;99.90;;;;;;5053420;28;20021;-68
2021/03/02 07:08:31;;;;;;;33.75;13.00;;;2.00;99.90;;;;;;5065460;28;20025;-69
2021/03/02 07:10:57;;;;;;;21.95;11.32;;;2.80;99.90;;;;;;5073219;28;20044;-64
2021/03/02 07:13:24;;;;;;;27.15;11.18;;;3.70;99.90;;;;;;5072916;28;20025;-69
2021/03/02 07:15:51;;;;;;;18.35;9.75;;;4.60;99.90;;;;;;5054998;28;20028;-68
2021/03/02 07:18:19;;;;;;;18.67;10.32;;;5.30;99.90;;;;;;5051877;28;20024;-68
2021/03/02 07:20:48;;;;;;;18.17;10.80;;;6.10;99.90;;;;;;5052924;28;20484;-69
2021/03/02 07:23:22;;;;;;;14.88;8.93;;;6.80;99.90;;;;;;5052990;28;20017;-70
2021/03/02 07:25:50;;;;;;;18.02;9.63;;;7.50;99.90;;;;;;5052880;28;20053;-68
2021/03/02 07:28:21;;;;;;;17.63;9.27;;;8.00;99.90;;;;;;5052618;28;20025;-70
2021/03/02 07:30:48;;;;;;;16.27;9.93;;;8.40;99.90;;;;;;5052845;28;20036;-69
2021/03/02 07:33:13;;;;;;;19.38;10.95;;;8.80;99.90;;;;;;5051720;28;20029;-69
2021/03/02 07:35:39;;;;;;;15.25;9.45;;;9.20;99.80;;;;;;5052640;28;20052;-67
2021/03/02 07:38:19;;;;;;;20.52;11.00;;;9.60;98.70;;;;;;5052700;28;20041;-68
2021/03/02 07:40:45;;;;;;;16.80;10.52;;;10.00;88.60;;;;;;5052701;28;20064;-68
2021/03/02 07:43:26;;;;;;;17.27;10.90;;;10.40;94.30;;;;;;5052492;28;20021;-70
2021/03/02 07:45:53;;;;;;;16.35;10.68;;;10.70;94.30;;;;;;5052329;28;20028;-68
2021/03/02 07:48:38;;;;;;;17.42;9.80;;;11.00;93.90;;;;;;5051537;28;20033;-70
2021/03/02 07:51:24;;;;;;;16.50;9.55;;;11.30;87.60;;;;;;5052663;28;20037;-69
2021/03/02 07:53:51;;;;;;;17.77;11.63;;;11.60;86.90;;;;;;5051997;28;20072;-69
2021/03/02 07:56:20;;;;;;;14.98;9.80;;;11.80;91.10;;;;;;5052254;28;21014;-69
2021/03/02 07:59:05;;;;;;;14.68;10.35;;;12.10;91.50;;;;;;5052306;28;20051;-69
2021/03/02 08:01:31;;;;;;;18.30;10.75;;;12.30;83.90;;;;;;5052205;28;20021;-68
2021/03/02 08:04:15;;;;;;;18.08;11.13;;;12.50;90.00;;;;;;5050837;28;20071;-68
2021/03/02 08:06:50;;;;;;;22.83;13.38;;;12.50;84.90;;;;;;5051996;28;20032;-70
2021/03/02 08:09:24;;;;;;;21.20;13.20;;;12.60;87.50;;;;;;5071221;28;20028;-69
2021/03/02 08:11:51;;;;;;;21.90;12.45;;;12.90;83.10;;;;;;5072288;28;20071;-69
2021/03/02 08:14:16;;;;;;;18.67;12.60;;;13.00;84.40;;;;;;5072012;28;20033;-68
2021/03/02 08:16:52;;;;;;;20.35;12.95;;;13.20;81.60;;;;;;5072276;28;20051;-67
2021/03/02 08:19:40;;;;;;;21.67;12.35;;;13.30;79.90;;;;;;5071106;28;20036;-65
2021/03/02 08:22:23;;;;;;;16.35;10.80;;;13.60;75.10;;;;;;5072490;28;20021;-65
2021/03/02 08:25:02;;;;;;;17.05;10.80;;;13.70;76.20;;;;;;5071125;28;20039;-63
2021/03/02 08:27:46;;;;;;;16.10;10.32;;;13.90;79.30;;;;;;5070838;28;20047;-64
2021/03/02 08:30:13;;;;;;;17.35;11.38;;;14.00;76.30;;;;;;5072349;28;20530;-64
2021/03/02 08:32:41;;;;;;;16.67;12.35;;;14.10;78.70;;;;;;5071793;28;20052;-65
2021/03/02 08:35:09;;;;;;;16.92;11.60;;;14.40;78.50;;;;;;5072010;28;20016;-64
2021/03/02 08:37:49;;;;;;;20.50;11.73;;;14.60;78.30;;;;;;5072024;28;20033;-62
2021/03/02 08:40:21;;;;;;;16.90;10.57;;;14.90;72.50;;;;;;5072315;28;20050;-63
2021/03/02 08:43:17;;;;;;;16.98;11.23;;;15.20;75.30;;;;;;5072006;28;20024;-62
2021/03/02 08:45:52;;;;;;;21.83;13.27;;;15.30;70.60;;;;;;5072230;28;20078;-63
2021/03/02 08:48:29;;;;;;;18.05;11.85;;;15.50;72.70;;;;;;5070096;28;20352;-63
2021/03/02 08:50:55;;;;;;;17.10;11.75;;;15.50;73.50;;;;;;5064798;28;20070;-62
2021/03/02 08:53:40;;;;;;;18.20;11.73;;;15.60;73.00;;;;;;5051779;28;20080;-63
2021/03/02 08:56:08;;;;;;;16.00;10.70;;;15.70;70.00;;;;;;5052028;28;20066;-62
2021/03/02 08:58:36;;;;;;;17.90;11.63;;;15.70;71.70;;;;;;5051716;28;20028;-63
2021/03/02 09:01:13;;;;;;;16.48;11.32;;;15.80;71.60;;;;;;5052023;28;20039;-61
2021/03/02 09:03:44;;;;;;;18.10;11.18;;;16.00;70.80;;;;;;5050982;28;20025;-63
2021/03/02 09:06:26;;;;;;;19.13;12.43;;;16.10;70.40;;;;;;5052030;28;20025;-63
2021/03/02 09:08:57;;;;;;;19.10;12.57;;;16.20;66.30;;;;;;5067439;28;20544;-62
2021/03/02 09:11:29;;;;;;;16.70;11.85;;;16.10;69.40;;;;;;5070529;28;20090;-63
2021/03/02 09:13:56;;;;;;;18.67;12.38;;;16.00;68.00;;;;;;5072951;28;20031;-62
2021/03/02 09:16:37;;;;;;;14.73;10.15;;;16.10;69.40;;;;;;5075590;28;20021;-60
2021/03/02 09:19:27;;;;;;;22.63;13.80;;;16.10;67.40;;;;;;5074508;28;20024;-62
2021/03/02 09:21:56;;;;;;;19.92;13.20;;;16.10;65.20;;;;;;5075392;28;20533;-63
2021/03/02 09:24:23;;;;;;;19.67;12.88;;;16.10;67.00;;;;;;5075483;28;20027;-64
2021/03/02 09:27:18;;;;;;;20.65;12.32;;;16.00;67.50;;;;;;5075383;28;20349;-64
2021/03/02 09:29:46;;;;;;;19.08;13.52;;;15.90;66.70;;;;;;5071902;28;20469;-63
2021/03/02 09:32:14;;;;;;;20.67;13.43;;;15.80;66.30;;;;;;5075146;28;20028;-64
2021/03/02 09:34:45;;;;;;;21.45;13.57;;;15.80;66.60;;;;;;5074190;28;20028;-63
2021/03/02 09:37:18;;;;;;;23.05;14.82;;;15.90;66.80;;;;;;5075328;28;20060;-61
2021/03/02 09:40:03;;;;;;;21.35;13.85;;;15.90;65.30;;;;;;5075028;28;20021;-64
2021/03/02 09:42:39;;;;;;;22.75;13.57;;;15.70;64.90;;;;;;5074998;28;20071;-63
2021/03/02 09:45:14;;;;;;;21.80;13.57;;;15.60;66.00;;;;;;5074966;28;20101;-63
2021/03/02 09:47:41;;;;;;;19.52;13.23;;;15.70;64.50;;;;;;5074172;28;20036;-62
2021/03/02 09:50:09;;;;;;;18.83;12.23;;;15.60;65.40;;;;;;5074107;28;20025;-63
2021/03/02 09:52:45;;;;;;;21.02;12.35;;;15.60;65.30;;;;;;5054884;28;20067;-62
2021/03/02 09:55:13;;;;;;;22.65;14.13;;;15.70;63.90;;;;;;5054379;28;20555;-62
2021/03/02 09:57:45;;;;;;;21.73;13.50;;;15.70;64.40;;;;;;5054855;28;20036;-63
2021/03/02 10:00:11;;;;;;;22.65;13.75;;;15.70;63.90;;;;;;5054497;28;20029;-62
2021/03/02 10:02:38;;;;;;;22.13;13.05;;;15.60;63.90;;;;;;5054368;28;20072;-64
2021/03/02 10:05:03;;;;;;;20.05;12.70;;;15.50;64.20;;;;;;5054261;28;20025;-63
2021/03/02 10:07:42;;;;;;;22.40;14.25;;;15.40;64.10;;;;;;5058809;28;20036;-63
2021/03/02 10:10:07;;;;;;;24.58;14.55;;;15.30;62.90;;;;;;5074533;28;20028;-64
2021/03/02 10:12:33;;;;;;;19.83;13.32;;;15.10;64.00;;;;;;5074512;28;20371;-63
2021/03/02 10:14:59;;;;;;;25.63;15.52;;;14.80;63.90;;;;;;5074250;28;20123;-62
2021/03/02 10:17:33;;;;;;;27.65;15.05;;;14.60;64.40;;;;;;5074503;28;20024;-63
2021/03/02 10:20:07;;;;;;;24.63;14.52;;;14.30;64.80;;;;;;5073236;28;20456;-63
2021/03/02 10:22:32;;;;;;;29.05;16.63;;;13.90;64.40;;;;;;5074414;28;20090;-63
2021/03/02 10:24:58;;;;;;;27.42;15.00;;;13.60;65.70;;;;;;5073696;28;20024;-62
2021/03/02 10:27:23;;;;;;;25.15;13.25;;;13.40;66.80;;;;;;5074220;28;20028;-64
2021/03/02 10:29:49;;;;;;;20.98;12.30;;;13.30;66.80;;;;;;5072883;28;20032;-61
2021/03/02 10:32:16;;;;;;;27.70;16.88;;;13.00;66.90;;;;;;5074128;28;20491;-62
2021/03/02 10:34:43;;;;;;;24.50;14.05;;;12.80;67.70;;;;;;5072848;28;20131;-62
2021/03/02 10:37:10;;;;;;;31.15;15.48;;;12.60;68.20;;;;;;5073028;28;20379;-62
2021/03/02 10:39:37;;;;;;;29.50;15.57;;;12.40;68.60;;;;;;5074046;28;20055;-62
2021/03/02 10:42:04;;;;;;;29.08;15.38;;;12.20;69.10;;;;;;5074049;28;20088;-61
2021/03/02 10:44:30;;;;;;;25.80;14.30;;;12.00;69.50;;;;;;5073844;28;20025;-62
2021/03/02 10:46:55;;;;;;;23.45;13.40;;;11.70;70.10;;;;;;5073825;28;20032;-63
2021/03/02 10:49:21;;;;;;;28.75;13.98;;;11.50;70.70;;;;;;5072661;28;20021;-63
2021/03/02 10:51:47;;;;;;;27.73;15.60;;;11.30;71.30;;;;;;5059177;28;20469;-61
2021/03/02 10:54:13;;;;;;;29.50;14.88;;;11.20;71.80;;;;;;5053595;28;20051;-63
2021/03/02 10:56:39;;;;;;;27.88;14.10;;;11.00;72.30;;;;;;5052422;28;20075;-62
2021/03/02 10:59:05;;;;;;;36.42;18.00;;;10.90;72.90;;;;;;5053616;28;20107;-62
2021/03/02 11:01:30;;;;;;;27.83;14.77;;;10.80;73.70;;;;;;5053562;28;20021;-63
2021/03/02 11:03:56;;;;;;;23.80;12.98;;;10.80;73.80;;;;;;5052507;28;20072;-61
2021/03/02 11:06:26;;;;;;;32.65;15.77;;;10.70;73.70;;;;;;5053416;28;20025;-62
2021/03/02 11:08:59;;;;;;;32.92;17.42;;;10.70;74.30;;;;;;5067704;28;20055;-61
2021/03/02 11:11:25;;;;;;;31.02;16.13;;;10.60;74.40;;;;;;5073296;28;20517;-62
2021/03/02 11:13:50;;;;;;;30.60;14.90;;;10.60;74.70;;;;;;5073323;28;20056;-61
2021/03/02 11:16:16;;;;;;;27.05;14.68;;;10.60;74.90;;;;;;5072915;28;20028;-61
2021/03/02 11:18:42;;;;;;;26.73;14.32;;;10.70;74.70;;;;;;5072109;28;20024;-61
2021/03/02 11:21:09;;;;;;;27.50;15.02;;;10.60;74.70;;;;;;5073126;28;20021;-61
2021/03/02 11:23:34;;;;;;;22.10;12.88;;;10.60;74.70;;;;;;5073268;28;20107;-61
2021/03/02 11:26:00;;;;;;;25.15;12.55;;;10.50;74.90;;;;;;5072998;28;20166;-62
2021/03/02 11:28:25;;;;;;;26.08;13.57;;;10.50;75.20;;;;;;5070153;28;20856;-61
2021/03/02 11:30:51;;;;;;;35.13;20.00;;;10.50;75.50;;;;;;5052640;28;20036;-62
2021/03/02 11:33:16;;;;;;;31.85;17.33;;;10.50;75.30;;;;;;5050481;28;20075;-60
2021/03/02 11:35:43;;;;;;;31.45;15.38;;;10.60;75.20;;;;;;5052751;28;20076;-62
2021/03/02 11:38:10;;;;;;;25.25;13.50;;;10.60;75.20;;;;;;5051937;28;20108;-62
2021/03/02 11:40:35;;;;;;;32.53;16.58;;;10.50;75.40;;;;;;5052877;28;20033;-62
2021/03/02 11:43:03;;;;;;;29.58;15.20;;;10.60;75.20;;;;;;5052815;28;20036;-65
2021/03/02 11:45:31;;;;;;;25.50;12.88;;;10.60;75.20;;;;;;5052694;28;20021;-62
2021/03/02 11:47:57;;;;;;;22.20;12.70;;;10.60;75.40;;;;;;5051647;28;20043;-62
2021/03/02 11:50:23;;;;;;;18.60;11.55;;;10.70;75.40;;;;;;5052642;28;20039;-62
2021/03/02 11:52:50;;;;;;;20.98;11.25;;;10.70;75.40;;;;;;5052676;28;20021;-62
2021/03/02 11:55:17;;;;;;;24.27;13.20;;;10.70;75.50;;;;;;5052401;28;20084;-62
2021/03/02 11:57:43;;;;;;;27.63;13.13;;;10.60;75.60;;;;;;5052661;28;20067;-62
2021/03/02 12:00:12;;;;;;;20.80;11.90;;;10.70;75.60;;;;;;5052451;28;20025;-61
2021/03/02 12:02:38;;;;;;;20.45;11.65;;;10.70;75.60;;;;;;5051604;28;20593;-62
2021/03/02 12:05:04;;;;;;;27.88;12.80;;;10.70;75.50;;;;;;5052464;28;20071;-62
2021/03/02 12:07:30;;;;;;;23.77;12.38;;;10.70;75.60;;;;;;5056792;28;20024;-61
2021/03/02 12:09:55;;;;;;;24.15;12.60;;;10.70;75.50;;;;;;5072359;28;20036;-62
2021/03/02 12:12:21;;;;;;;21.90;11.45;;;10.80;75.60;;;;;;5072582;28;20122;-62
2021/03/02 12:14:47;;;;;;;18.45;10.25;;;10.80;75.50;;;;;;5072122;28;20365;-62
2021/03/02 12:17:12;;;;;;;21.83;11.57;;;10.80;75.60;;;;;;5071546;28;20028;-61
2021/03/02 12:19:38;;;;;;;21.02;10.27;;;10.90;75.40;;;;;;5071296;28;20032;-60
2021/03/02 12:22:04;;;;;;;22.65;10.85;;;10.90;75.20;;;;;;5072347;28;20032;-61
2021/03/02 12:24:29;;;;;;;19.13;9.88;;;10.90;74.80;;;;;;5072492;28;20036;-60
2021/03/02 12:26:57;;;;;;;22.42;13.13;;;10.90;74.70;;;;;;5072133;28;20028;-60
2021/03/02 12:29:22;;;;;;;17.58;9.55;;;10.90;74.40;;;;;;5072346;28;20025;-60
2021/03/02 12:31:48;;;;;;;18.70;9.75;;;11.00;73.80;;;;;;5072163;28;20086;-60
2021/03/02 12:34:13;;;;;;;15.20;8.38;;;11.00;73.00;;;;;;5071296;28;20116;-60
2021/03/02 12:36:40;;;;;;;14.90;7.80;;;11.10;73.00;;;;;;5072267;28;20390;-58